Time;durP1;ratioP1;P1;durP2;ratioP2;P2;SDS_P1;SDS_P2;PMS_P1;PMS_P2;Temp;Humidity;BMP_temperature;BMP_pressure;BME280_temperature;BME280_humidity;BME280_pressure;Samples;Min_cycle;Max_cycle;Signal;HPM_P1;HPM_P2
2023/07/02 00:01:15;;;;;;;5.13;2.80;;;19.10;99.90;;;;;;5045336;28;20037;-42
2023/07/02 00:03:40;;;;;;;5.07;2.70;;;19.10;99.90;;;;;;5046052;28;20079;-41
2023/07/02 00:06:06;;;;;;;7.10;3.13;;;19.10;99.90;;;;;;5045873;28;20821;-42
2023/07/02 00:08:32;;;;;;;5.60;2.90;;;19.10;99.90;;;;;;5045526;28;20381;-42
2023/07/02 00:11:03;;;;;;;6.03;3.08;;;19.10;99.90;;;;;;5045950;28;20033;-42
2023/07/02 00:13:29;;;;;;;6.25;3.13;;;19.00;99.90;;;;;;5045887;28;20017;-41
2023/07/02 00:16:07;;;;;;;6.18;3.47;;;19.00;99.90;;;;;;5045002;28;20048;-42
2023/07/02 00:18:35;;;;;;;7.60;3.78;;;19.00;99.90;;;;;;5045564;28;20017;-42
2023/07/02 00:21:04;;;;;;;5.47;3.55;;;19.00;99.90;;;;;;5045263;28;20033;-43
2023/07/02 00:23:33;;;;;;;8.15;4.05;;;19.00;99.90;;;;;;5045647;28;20017;-42
2023/07/02 00:25:58;;;;;;;8.30;4.53;;;19.00;99.90;;;;;;5046423;28;20068;-41
2023/07/02 00:28:24;;;;;;;8.32;4.82;;;19.00;99.90;;;;;;5045021;28;20560;-42
2023/07/02 00:30:49;;;;;;;8.07;4.40;;;19.00;99.90;;;;;;5045762;28;20388;-42
2023/07/02 00:33:15;;;;;;;8.15;4.30;;;19.00;99.90;;;;;;5045881;28;20032;-42
2023/07/02 00:35:41;;;;;;;8.45;4.15;;;19.00;99.90;;;;;;5045092;28;20021;-42
2023/07/02 00:38:07;;;;;;;7.97;4.55;;;19.00;99.90;;;;;;5045777;28;20025;-42
2023/07/02 00:40:32;;;;;;;9.38;5.13;;;19.00;99.90;;;;;;5045397;28;20033;-45
2023/07/02 00:42:58;;;;;;;10.98;5.90;;;19.00;99.90;;;;;;5045286;28;20543;-42
2023/07/02 00:45:26;;;;;;;11.20;5.88;;;19.00;99.90;;;;;;5045342;28;20353;-42
2023/07/02 00:48:03;;;;;;;10.23;5.63;;;18.80;99.90;;;;;;5045702;28;20025;-42
2023/07/02 00:50:29;;;;;;;10.48;5.70;;;18.60;99.90;;;;;;5044784;28;20855;-46
2023/07/02 00:52:57;;;;;;;12.73;5.97;;;18.30;99.90;;;;;;5046063;28;20025;-42
2023/07/02 00:55:23;;;;;;;9.60;5.20;;;18.20;99.90;;;;;;5045234;28;20418;-43
2023/07/02 00:57:49;;;;;;;9.40;5.20;;;18.00;99.90;;;;;;5044629;28;20032;-42
2023/07/02 01:00:15;;;;;;;9.23;5.28;;;17.90;99.90;;;;;;5043789;28;20025;-42
2023/07/02 01:02:43;;;;;;;9.00;5.50;;;17.80;99.90;;;;;;5045020;28;20132;-42
2023/07/02 01:05:13;;;;;;;7.93;4.97;;;17.70;99.90;;;;;;5044220;28;20077;-41
2023/07/02 01:07:39;;;;;;;8.30;4.97;;;17.60;99.90;;;;;;5045662;28;20053;-42
2023/07/02 01:10:05;;;;;;;6.82;4.22;;;17.60;99.90;;;;;;5044361;28;20426;-41
2023/07/02 01:12:31;;;;;;;8.15;4.78;;;17.60;99.90;;;;;;5044589;28;20193;-42
2023/07/02 01:15:03;;;;;;;6.45;4.18;;;17.50;99.90;;;;;;5045553;28;20021;-43
2023/07/02 01:17:37;;;;;;;6.32;4.50;;;17.50;99.90;;;;;;5044512;28;20029;-42
2023/07/02 01:20:03;;;;;;;7.25;4.30;;;17.50;99.90;;;;;;5045435;28;20032;-42
2023/07/02 01:22:30;;;;;;;9.85;4.47;;;17.50;99.90;;;;;;5044886;28;20052;-42
2023/07/02 01:24:56;;;;;;;6.03;4.43;;;17.40;99.90;;;;;;5044280;28;20025;-41
2023/07/02 01:27:22;;;;;;;6.72;4.32;;;17.40;99.90;;;;;;5044584;28;20025;-41
2023/07/02 01:29:51;;;;;;;9.32;4.57;;;17.30;99.90;;;;;;5045051;28;20030;-42
2023/07/02 01:32:16;;;;;;;8.20;4.70;;;17.30;99.90;;;;;;5043070;28;20052;-42
2023/07/02 01:34:48;;;;;;;9.82;4.40;;;17.30;99.90;;;;;;5044373;28;20067;-42
2023/07/02 01:37:14;;;;;;;7.38;4.43;;;17.30;99.90;;;;;;5044698;28;20065;-42
2023/07/02 01:39:40;;;;;;;7.55;4.93;;;17.20;99.90;;;;;;5043917;28;20221;-41
2023/07/02 01:42:12;;;;;;;7.53;4.38;;;17.20;99.90;;;;;;5044504;28;20489;-41
2023/07/02 01:44:38;;;;;;;10.48;4.88;;;17.20;99.90;;;;;;5024492;28;20029;-41
2023/07/02 01:47:04;;;;;;;10.23;4.90;;;17.20;99.90;;;;;;5038873;28;20029;-42
2023/07/02 01:49:30;;;;;;;7.13;4.80;;;17.20;99.90;;;;;;5044721;28;20035;-42
2023/07/02 01:51:57;;;;;;;9.65;4.90;;;17.20;99.90;;;;;;5044734;28;20021;-42
2023/07/02 01:54:29;;;;;;;7.07;4.32;;;17.20;99.90;;;;;;5044472;28;20569;-42
2023/07/02 01:56:56;;;;;;;8.00;4.88;;;17.10;99.90;;;;;;5044068;28;20145;-42
2023/07/02 01:59:22;;;;;;;7.95;4.70;;;17.10;99.90;;;;;;5043569;28;20485;-41
2023/07/02 02:01:47;;;;;;;9.38;4.88;;;17.10;99.90;;;;;;5043999;28;20029;-42
2023/07/02 02:04:13;;;;;;;8.00;4.93;;;17.10;99.90;;;;;;5043592;28;20106;-42
2023/07/02 02:06:40;;;;;;;10.38;5.38;;;17.00;99.90;;;;;;5043499;28;20378;-42
2023/07/02 02:09:09;;;;;;;13.05;5.68;;;16.90;99.90;;;;;;5044421;28;20029;-41
2023/07/02 02:11:41;;;;;;;10.85;5.63;;;16.80;99.90;;;;;;5045264;28;20020;-42
2023/07/02 02:14:10;;;;;;;10.32;5.88;;;16.80;99.90;;;;;;5048451;28;20079;-43
2023/07/02 02:16:35;;;;;;;9.88;5.35;;;16.70;99.90;;;;;;5048189;28;20044;-43
2023/07/02 02:19:01;;;;;;;10.75;5.30;;;16.60;99.90;;;;;;5048861;28;20021;-42
2023/07/02 02:21:27;;;;;;;9.95;5.55;;;16.60;99.90;;;;;;5047753;28;20066;-41
2023/07/02 02:23:52;;;;;;;8.20;5.30;;;16.60;99.90;;;;;;5047831;28;20017;-42
2023/07/02 02:26:21;;;;;;;9.20;5.40;;;16.50;99.90;;;;;;5048120;28;20376;-41
2023/07/02 02:28:48;;;;;;;7.15;5.20;;;16.50;99.90;;;;;;5047450;28;20025;-41
2023/07/02 02:31:16;;;;;;;8.25;5.00;;;16.40;99.90;;;;;;5048871;28;20112;-42
2023/07/02 02:33:42;;;;;;;8.80;5.25;;;16.40;99.90;;;;;;5047952;28;20017;-42
2023/07/02 02:36:08;;;;;;;10.65;5.72;;;16.40;99.90;;;;;;5047046;28;20043;-42
2023/07/02 02:38:34;;;;;;;7.85;5.18;;;16.30;99.90;;;;;;5047379;28;20056;-42
2023/07/02 02:41:00;;;;;;;9.45;5.55;;;16.30;99.90;;;;;;5048314;28;20096;-42
2023/07/02 02:43:26;;;;;;;9.27;5.50;;;16.30;99.90;;;;;;5046849;28;20021;-42
2023/07/02 02:45:51;;;;;;;11.07;5.32;;;16.30;99.90;;;;;;5047866;28;20029;-42
2023/07/02 02:48:17;;;;;;;8.60;4.95;;;16.30;99.90;;;;;;5047244;28;20472;-42
2023/07/02 02:50:42;;;;;;;10.82;5.60;;;16.20;99.90;;;;;;5047031;28;20033;-42
2023/07/02 02:53:09;;;;;;;8.35;5.22;;;16.20;99.90;;;;;;5048121;28;20094;-42
2023/07/02 02:55:35;;;;;;;8.23;5.00;;;16.20;99.90;;;;;;5046912;28;20065;-42
2023/07/02 02:58:01;;;;;;;7.55;4.72;;;16.20;99.90;;;;;;5047704;28;20033;-41
2023/07/02 03:00:26;;;;;;;8.75;4.88;;;16.20;99.90;;;;;;5047215;28;20040;-42
2023/07/02 03:02:52;;;;;;;7.50;4.70;;;16.20;99.90;;;;;;5047252;28;20122;-42
2023/07/02 03:05:17;;;;;;;9.23;5.50;;;16.10;99.90;;;;;;5046989;28;20060;-43
2023/07/02 03:07:43;;;;;;;9.00;5.10;;;16.20;99.90;;;;;;5047336;28;20031;-42
2023/07/02 03:10:09;;;;;;;8.25;4.68;;;16.10;99.90;;;;;;5047061;28;20025;-43
2023/07/02 03:12:35;;;;;;;9.13;4.97;;;16.10;99.90;;;;;;5046901;28;20040;-42
2023/07/02 03:15:00;;;;;;;10.80;5.13;;;16.10;99.90;;;;;;5046926;28;20053;-42
2023/07/02 03:17:26;;;;;;;9.63;4.70;;;16.10;99.90;;;;;;5046688;28;20033;-42
2023/07/02 03:19:52;;;;;;;9.00;5.15;;;16.10;99.90;;;;;;5046457;28;20773;-42
2023/07/02 03:22:20;;;;;;;9.25;5.18;;;16.20;99.90;;;;;;5047214;28;20035;-42
2023/07/02 03:24:46;;;;;;;9.43;4.90;;;16.10;99.90;;;;;;5045941;28;20025;-42
2023/07/02 03:27:11;;;;;;;9.20;5.15;;;16.10;99.90;;;;;;5047131;28;20040;-42
2023/07/02 03:29:38;;;;;;;10.57;5.18;;;16.20;99.90;;;;;;5046685;28;20024;-42
2023/07/02 03:32:04;;;;;;;7.57;5.30;;;16.20;99.90;;;;;;5047022;28;20033;-41
2023/07/02 03:34:29;;;;;;;9.90;4.85;;;16.20;99.90;;;;;;5046088;28;20037;-42
2023/07/02 03:36:55;;;;;;;11.38;5.55;;;16.20;99.90;;;;;;5046393;28;20376;-42
2023/07/02 03:39:21;;;;;;;8.65;4.70;;;16.20;99.90;;;;;;5045811;28;20021;-43
2023/07/02 03:41:49;;;;;;;9.05;4.85;;;16.20;99.90;;;;;;5046651;28;20648;-42
2023/07/02 03:44:19;;;;;;;7.25;4.60;;;16.20;99.90;;;;;;5046633;28;20017;-43
2023/07/02 03:46:45;;;;;;;7.50;4.47;;;16.30;99.90;;;;;;5044714;28;20035;-42
2023/07/02 03:49:10;;;;;;;8.52;4.55;;;16.20;99.90;;;;;;5046242;28;20029;-43
2023/07/02 03:51:36;;;;;;;12.25;5.32;;;16.30;99.90;;;;;;5046283;28;20098;-42
2023/07/02 03:54:02;;;;;;;11.50;4.57;;;16.20;99.90;;;;;;5046742;28;20143;-42
2023/07/02 03:56:27;;;;;;;7.35;4.75;;;16.20;99.90;;;;;;5046427;28;20434;-41
2023/07/02 03:58:53;;;;;;;7.40;4.15;;;16.20;99.90;;;;;;5045993;28;20040;-41
2023/07/02 04:01:22;;;;;;;8.15;4.68;;;16.20;99.90;;;;;;5045699;28;20032;-41
2023/07/02 04:03:52;;;;;;;8.18;4.82;;;16.20;99.90;;;;;;5046473;28;20021;-41
2023/07/02 04:06:18;;;;;;;10.23;5.10;;;16.20;99.90;;;;;;5045173;28;20053;-41
2023/07/02 04:08:44;;;;;;;10.93;5.45;;;16.20;99.90;;;;;;5046045;28;20031;-41
2023/07/02 04:11:10;;;;;;;9.48;5.47;;;16.20;99.90;;;;;;5046797;28;20795;-41
2023/07/02 04:13:36;;;;;;;8.90;4.63;;;16.10;99.90;;;;;;5045099;28;20619;-42
2023/07/02 04:16:01;;;;;;;11.50;5.25;;;16.10;99.90;;;;;;5046231;28;20032;-41
2023/07/02 04:18:29;;;;;;;14.00;5.78;;;16.10;99.90;;;;;;5046857;28;20032;-41
2023/07/02 04:20:55;;;;;;;7.43;5.00;;;16.00;99.90;;;;;;5045443;28;20496;-41
2023/07/02 04:23:20;;;;;;;9.30;5.38;;;16.00;99.90;;;;;;5046124;28;20036;-42
2023/07/02 04:25:46;;;;;;;11.73;5.53;;;16.10;99.90;;;;;;5045832;28;20412;-42
2023/07/02 04:28:11;;;;;;;11.73;6.07;;;16.10;99.90;;;;;;5044996;28;20028;-41
2023/07/02 04:30:37;;;;;;;14.45;6.30;;;16.10;99.90;;;;;;5045682;28;20025;-41
2023/07/02 04:33:03;;;;;;;11.10;5.97;;;16.20;99.90;;;;;;5045209;28;20017;-43
2023/07/02 04:35:28;;;;;;;11.35;6.30;;;16.20;99.90;;;;;;5043809;28;20028;-42
2023/07/02 04:37:54;;;;;;;13.13;6.93;;;16.30;99.90;;;;;;5045028;28;20028;-42
2023/07/02 04:40:26;;;;;;;10.55;5.75;;;16.30;99.90;;;;;;5045219;28;20032;-42
2023/07/02 04:42:57;;;;;;;10.68;6.10;;;16.30;99.90;;;;;;5044475;28;20021;-42
2023/07/02 04:45:23;;;;;;;10.02;5.75;;;16.20;99.90;;;;;;5044901;28;20029;-43
2023/07/02 04:47:52;;;;;;;10.43;5.38;;;16.20;99.90;;;;;;5044547;28;20116;-43
2023/07/02 04:50:21;;;;;;;12.88;6.70;;;16.20;99.90;;;;;;5044897;28;20590;-42
2023/07/02 04:52:47;;;;;;;14.82;6.57;;;16.20;99.90;;;;;;5044935;28;20354;-42
2023/07/02 04:55:18;;;;;;;12.25;6.15;;;16.20;99.90;;;;;;5044669;28;20536;-42
2023/07/02 04:57:44;;;;;;;10.40;5.53;;;16.20;99.90;;;;;;5045444;28;20017;-41
2023/07/02 05:00:10;;;;;;;9.25;5.60;;;16.20;99.90;;;;;;5045247;28;20028;-41
2023/07/02 05:02:36;;;;;;;16.63;6.78;;;16.30;99.90;;;;;;5043977;28;20037;-42
2023/07/02 05:05:01;;;;;;;14.15;6.40;;;16.30;99.90;;;;;;5044704;28;20111;-42
2023/07/02 05:07:27;;;;;;;12.80;6.47;;;16.30;99.90;;;;;;5044445;28;20028;-42
2023/07/02 05:09:53;;;;;;;11.13;6.22;;;16.40;99.90;;;;;;5044013;28;20150;-41
2023/07/02 05:12:19;;;;;;;11.40;5.72;;;16.40;99.90;;;;;;5044491;28;20025;-42
2023/07/02 05:14:45;;;;;;;11.63;5.00;;;16.40;99.90;;;;;;5044280;28;20009;-42
2023/07/02 05:17:11;;;;;;;12.32;6.07;;;16.40;99.90;;;;;;5044547;28;20056;-42
2023/07/02 05:19:36;;;;;;;11.50;6.35;;;16.40;99.90;;;;;;5044513;28;20048;-42
2023/07/02 05:22:02;;;;;;;13.88;6.70;;;16.40;99.90;;;;;;5045273;28;20119;-42
2023/07/02 05:24:28;;;;;;;12.60;6.25;;;16.40;99.90;;;;;;5044018;28;20025;-42
2023/07/02 05:26:53;;;;;;;11.02;6.05;;;16.50;99.90;;;;;;5044562;28;20036;-43
2023/07/02 05:29:22;;;;;;;11.13;5.82;;;16.60;99.90;;;;;;5044713;28;20036;-42
2023/07/02 05:31:47;;;;;;;11.60;5.85;;;16.70;99.90;;;;;;5043379;28;20029;-43
2023/07/02 05:34:13;;;;;;;10.25;5.78;;;16.80;99.90;;;;;;5044415;28;20029;-41
2023/07/02 05:36:38;;;;;;;17.13;7.30;;;17.00;99.90;;;;;;5044710;28;20033;-42
2023/07/02 05:39:04;;;;;;;11.90;6.65;;;17.10;99.90;;;;;;5043394;28;20029;-42
2023/07/02 05:41:30;;;;;;;11.65;6.70;;;17.10;99.90;;;;;;5044470;28;20025;-42
2023/07/02 05:43:59;;;;;;;18.20;6.88;;;17.20;99.90;;;;;;5044083;28;20133;-42
2023/07/02 05:46:25;;;;;;;16.10;7.45;;;17.30;99.90;;;;;;5043720;28;20871;-42
2023/07/02 05:48:50;;;;;;;11.00;5.93;;;17.40;99.90;;;;;;5043987;28;20113;-41
2023/07/02 05:51:23;;;;;;;13.75;7.03;;;17.40;99.90;;;;;;5043030;28;20248;-41
2023/07/02 05:53:50;;;;;;;15.55;7.22;;;17.50;99.90;;;;;;5044840;28;20029;-43
2023/07/02 05:56:16;;;;;;;16.20;6.90;;;17.50;99.90;;;;;;5043801;28;20922;-42
2023/07/02 05:58:46;;;;;;;17.52;7.30;;;17.60;99.90;;;;;;5043450;28;20384;-42
2023/07/02 06:01:12;;;;;;;14.70;6.97;;;17.60;99.90;;;;;;5044571;28;20116;-43
2023/07/02 06:03:37;;;;;;;17.42;7.68;;;17.70;99.90;;;;;;5044256;28;20104;-43
2023/07/02 06:06:06;;;;;;;13.73;6.75;;;17.70;99.90;;;;;;5043100;28;20393;-43
2023/07/02 06:08:32;;;;;;;12.50;6.82;;;17.80;99.90;;;;;;5043923;28;20049;-43
2023/07/02 06:10:58;;;;;;;15.85;6.68;;;17.80;99.90;;;;;;5043452;28;20033;-43
2023/07/02 06:13:24;;;;;;;12.82;6.78;;;17.80;99.90;;;;;;5043074;28;20024;-41
2023/07/02 06:15:49;;;;;;;15.90;6.63;;;17.80;99.90;;;;;;5043492;28;20101;-42
2023/07/02 06:18:17;;;;;;;16.10;7.05;;;17.80;99.90;;;;;;5043666;28;20140;-42
2023/07/02 06:20:43;;;;;;;10.20;5.63;;;17.80;99.90;;;;;;5042735;28;20024;-42
2023/07/02 06:23:08;;;;;;;13.13;6.15;;;17.90;99.90;;;;;;5043852;28;20032;-41
2023/07/02 06:25:34;;;;;;;13.65;6.35;;;17.90;99.90;;;;;;5043229;28;20463;-42
2023/07/02 06:28:00;;;;;;;10.68;5.40;;;18.00;99.90;;;;;;5042500;28;20033;-43
2023/07/02 06:30:26;;;;;;;11.68;5.60;;;18.00;99.90;;;;;;5044082;28;20071;-41
2023/07/02 06:32:52;;;;;;;13.32;5.90;;;18.00;99.90;;;;;;5043294;28;20033;-42
2023/07/02 06:35:17;;;;;;;15.02;7.07;;;18.00;99.90;;;;;;5042724;28;20025;-42
2023/07/02 06:37:43;;;;;;;11.43;6.20;;;18.00;99.90;;;;;;5043809;28;20138;-42
2023/07/02 06:40:10;;;;;;;12.75;6.50;;;18.10;99.90;;;;;;5043371;28;20052;-43
2023/07/02 06:42:35;;;;;;;13.68;6.60;;;18.10;99.90;;;;;;5041803;28;20029;-42
2023/07/02 06:45:02;;;;;;;17.10;6.85;;;18.20;99.90;;;;;;5044700;28;20530;-43
2023/07/02 06:47:28;;;;;;;12.77;6.32;;;18.20;99.90;;;;;;5043193;28;20021;-43
2023/07/02 06:49:56;;;;;;;15.55;6.80;;;18.30;99.90;;;;;;5043491;28;20024;-42
2023/07/02 06:52:22;;;;;;;13.48;6.43;;;18.30;99.90;;;;;;5043532;28;20029;-41
2023/07/02 06:54:47;;;;;;;15.13;7.05;;;18.30;99.90;;;;;;5042605;28;20206;-41
2023/07/02 06:57:23;;;;;;;10.88;6.38;;;18.40;99.90;;;;;;5043504;28;20033;-42
2023/07/02 06:59:48;;;;;;;13.77;6.05;;;18.40;99.90;;;;;;5047238;28;20059;-42
2023/07/02 07:02:14;;;;;;;14.00;6.07;;;18.50;99.90;;;;;;5046536;28;20064;-41
2023/07/02 07:04:40;;;;;;;15.70;7.28;;;18.60;99.90;;;;;;5046860;28;20045;-41
2023/07/02 07:07:05;;;;;;;11.52;6.57;;;18.50;99.90;;;;;;5046945;28;20028;-41
2023/07/02 07:09:31;;;;;;;17.10;7.30;;;18.50;99.90;;;;;;5046189;28;20053;-41
2023/07/02 07:12:09;;;;;;;13.73;6.45;;;18.50;99.90;;;;;;5046935;28;20020;-42
2023/07/02 07:14:35;;;;;;;14.95;6.47;;;18.50;99.90;;;;;;5046891;28;20075;-42
2023/07/02 07:17:01;;;;;;;11.32;6.10;;;18.60;99.90;;;;;;5045628;28;20041;-42
2023/07/02 07:19:26;;;;;;;12.10;6.30;;;18.60;99.90;;;;;;5047205;28;20032;-42
2023/07/02 07:21:52;;;;;;;11.07;5.80;;;18.60;99.90;;;;;;5045933;28;20071;-41
2023/07/02 07:24:23;;;;;;;14.80;6.18;;;18.50;99.90;;;;;;5046432;28;20032;-41
2023/07/02 07:26:49;;;;;;;11.95;5.93;;;18.50;99.90;;;;;;5046608;28;20025;-41
2023/07/02 07:29:14;;;;;;;14.48;6.22;;;18.40;99.90;;;;;;5046138;28;20021;-42
2023/07/02 07:31:40;;;;;;;11.77;5.57;;;18.30;99.90;;;;;;5045790;28;20037;-41
2023/07/02 07:34:06;;;;;;;11.90;5.93;;;18.40;99.90;;;;;;5046544;28;20021;-42
2023/07/02 07:36:31;;;;;;;13.07;6.10;;;18.30;99.90;;;;;;5046768;28;20033;-42
2023/07/02 07:38:57;;;;;;;13.00;5.85;;;18.40;99.90;;;;;;5046302;28;20659;-41
2023/07/02 07:41:22;;;;;;;8.70;5.00;;;18.40;99.90;;;;;;5046591;28;20029;-42
2023/07/02 07:43:48;;;;;;;12.05;5.82;;;18.50;99.90;;;;;;5045341;28;20028;-41
2023/07/02 07:46:14;;;;;;;10.45;5.60;;;18.50;99.90;;;;;;5045898;28;20036;-41
2023/07/02 07:48:39;;;;;;;11.52;5.93;;;18.60;99.90;;;;;;5046255;28;20053;-42
2023/07/02 07:51:05;;;;;;;17.27;6.63;;;18.70;99.90;;;;;;5045045;28;20033;-40
2023/07/02 07:53:30;;;;;;;12.70;5.70;;;18.70;99.90;;;;;;5045892;28;20021;-42
2023/07/02 07:55:56;;;;;;;12.25;5.97;;;18.70;99.90;;;;;;5046169;28;20098;-42
2023/07/02 07:58:24;;;;;;;11.90;5.55;;;18.70;99.90;;;;;;5045389;28;20358;-42
2023/07/02 08:00:50;;;;;;;13.75;6.63;;;18.60;99.90;;;;;;5045963;28;20047;-42
2023/07/02 08:03:15;;;;;;;11.05;5.47;;;18.60;99.90;;;;;;5046070;28;21230;-42
2023/07/02 08:05:41;;;;;;;10.07;5.32;;;18.60;99.90;;;;;;5044626;28;20166;-42
2023/07/02 08:08:10;;;;;;;10.90;6.03;;;18.70;99.90;;;;;;5045970;28;20029;-41
2023/07/02 08:10:41;;;;;;;12.15;6.03;;;18.70;99.90;;;;;;5045596;28;20510;-43
2023/07/02 08:13:08;;;;;;;10.73;4.70;;;18.80;99.90;;;;;;5044923;28;20032;-42
2023/07/02 08:15:34;;;;;;;12.57;5.68;;;18.80;99.90;;;;;;5045378;28;20353;-42
2023/07/02 08:17:59;;;;;;;12.98;6.13;;;18.80;99.90;;;;;;5046166;28;20029;-42
2023/07/02 08:20:28;;;;;;;13.63;5.97;;;18.80;99.90;;;;;;5045111;28;20025;-41
2023/07/02 08:22:53;;;;;;;11.25;5.03;;;18.70;99.90;;;;;;5045472;28;20573;-41
2023/07/02 08:25:21;;;;;;;11.68;5.18;;;18.70;99.90;;;;;;5045811;28;20115;-42
2023/07/02 08:27:47;;;;;;;10.60;5.50;;;18.70;99.90;;;;;;5044931;28;20060;-41
2023/07/02 08:30:15;;;;;;;13.55;5.63;;;18.80;99.90;;;;;;5044915;28;20048;-42
2023/07/02 08:32:41;;;;;;;9.27;4.75;;;18.90;99.90;;;;;;5045599;28;20033;-42
2023/07/02 08:35:10;;;;;;;6.90;4.40;;;19.10;99.90;;;;;;5044767;28;20040;-42
2023/07/02 08:37:35;;;;;;;12.98;5.38;;;19.30;99.90;;;;;;5045960;28;20064;-43
2023/07/02 08:40:01;;;;;;;10.73;4.72;;;19.40;99.90;;;;;;5044962;28;20067;-42
2023/07/02 08:42:30;;;;;;;9.23;5.47;;;19.40;99.90;;;;;;5044996;28;20025;-42
2023/07/02 08:44:59;;;;;;;9.75;5.28;;;19.30;99.90;;;;;;5044797;28;20362;-43
2023/07/02 08:47:24;;;;;;;9.07;4.78;;;19.20;99.90;;;;;;5044858;28;20021;-43
2023/07/02 08:49:50;;;;;;;9.80;5.47;;;19.20;99.90;;;;;;5044779;28;20024;-42
2023/07/02 08:52:16;;;;;;;10.85;5.18;;;19.10;99.70;;;;;;5044845;28;20447;-41
2023/07/02 08:54:42;;;;;;;9.80;5.20;;;19.00;99.80;;;;;;5044363;28;20481;-42
2023/07/02 08:57:09;;;;;;;10.23;5.70;;;19.00;99.80;;;;;;5044643;28;20064;-42
2023/07/02 08:59:36;;;;;;;8.45;5.03;;;19.00;99.50;;;;;;5045076;28;20048;-42
2023/07/02 09:02:02;;;;;;;10.00;5.07;;;19.00;99.60;;;;;;5044181;28;20118;-42
2023/07/02 09:04:33;;;;;;;13.82;5.55;;;19.10;99.90;;;;;;5045108;28;20016;-41
2023/07/02 09:07:10;;;;;;;10.00;5.15;;;19.20;99.90;;;;;;5044764;28;20033;-42
2023/07/02 09:09:49;;;;;;;11.05;4.90;;;19.30;99.80;;;;;;5044468;28;20044;-43
2023/07/02 09:12:26;;;;;;;9.80;5.57;;;19.40;99.50;;;;;;5044950;28;20187;-43
2023/07/02 09:14:58;;;;;;;8.85;4.75;;;19.30;98.70;;;;;;5044990;28;20025;-42
2023/07/02 09:17:30;;;;;;;;;;;19.20;98.90;;;;;;5044326;28;20102;-43
2023/07/02 09:20:10;;;;;;;10.57;5.00;;;19.10;98.80;;;;;;5044877;28;19908;-42
2023/07/02 09:22:40;;;;;;;8.52;4.90;;;19.10;98.60;;;;;;5043388;28;20053;-42
2023/07/02 09:25:06;;;;;;;10.80;5.00;;;19.20;97.70;;;;;;5045221;28;20106;-42
2023/07/02 09:27:38;;;;;;;10.25;4.85;;;19.30;96.00;;;;;;5044749;28;20032;-42
2023/07/02 09:30:15;;;;;;;8.43;4.68;;;19.30;95.80;;;;;;5043779;28;20017;-42
2023/07/02 09:32:40;;;;;;;10.65;4.43;;;19.40;95.60;;;;;;5043892;28;20067;-42
2023/07/02 09:35:07;;;;;;;8.63;4.60;;;19.40;95.20;;;;;;5044265;28;20128;-43
2023/07/02 09:37:33;;;;;;;7.30;4.05;;;19.40;95.10;;;;;;5043619;28;20830;-41
2023/07/02 09:40:00;;;;;;;7.88;4.30;;;19.40;94.40;;;;;;5044281;28;20110;-41
2023/07/02 09:42:27;;;;;;;5.97;3.90;;;19.50;94.90;;;;;;5044472;28;20020;-41
2023/07/02 09:44:57;;;;;;;10.10;4.38;;;19.50;94.10;;;;;;5043231;28;20025;-41
2023/07/02 09:47:25;;;;;;;6.88;3.75;;;19.40;92.30;;;;;;5044651;28;20532;-42
2023/07/02 09:50:05;;;;;;;5.10;3.70;;;19.50;92.10;;;;;;5044516;28;20032;-42
2023/07/02 09:52:31;;;;;;;7.57;3.90;;;19.50;91.70;;;;;;5043527;28;20029;-42
2023/07/02 09:54:57;;;;;;;10.52;4.40;;;19.60;91.70;;;;;;5044500;28;20041;-42
2023/07/02 09:57:22;;;;;;;8.48;4.05;;;19.70;91.00;;;;;;5043479;28;20029;-41
2023/07/02 09:59:48;;;;;;;5.75;3.50;;;19.70;90.80;;;;;;5044195;28;20021;-41
2023/07/02 10:02:14;;;;;;;6.05;3.67;;;19.70;91.40;;;;;;5044144;28;20024;-42
2023/07/02 10:04:40;;;;;;;8.65;4.07;;;19.80;91.10;;;;;;5043291;28;20471;-42
2023/07/02 10:07:07;;;;;;;7.60;4.40;;;19.70;90.60;;;;;;5043559;28;20036;-42
2023/07/02 10:09:50;;;;;;;6.78;4.15;;;19.60;90.40;;;;;;5043619;28;20105;-42
2023/07/02 10:12:27;;;;;;;9.65;4.15;;;19.60;90.90;;;;;;5043085;28;20040;-43
2023/07/02 10:14:57;;;;;;;6.40;3.53;;;19.70;91.30;;;;;;5040114;28;20477;-43
2023/07/02 10:17:34;;;;;;;7.90;3.80;;;19.80;90.50;;;;;;5044147;28;20896;-42
2023/07/02 10:20:08;;;;;;;7.78;3.95;;;19.90;89.60;;;;;;5042563;28;20009;-42
2023/07/02 10:22:53;;;;;;;6.60;3.78;;;20.00;89.00;;;;;;5044366;28;20036;-42
2023/07/02 10:25:29;;;;;;;7.38;3.65;;;20.10;90.20;;;;;;5041128;28;20093;-42
2023/07/02 10:27:55;;;;;;;7.20;3.55;;;20.30;90.30;;;;;;5043631;28;20077;-42
2023/07/02 10:30:34;;;;;;;8.07;3.83;;;20.40;90.20;;;;;;5044152;28;20029;-42
2023/07/02 10:33:15;;;;;;;5.88;3.20;;;20.50;87.80;;;;;;5045249;28;20056;-42
2023/07/02 10:35:47;;;;;;;7.45;3.97;;;20.50;88.70;;;;;;5045466;28;20037;-42
2023/07/02 10:38:23;;;;;;;7.00;4.20;;;20.40;88.80;;;;;;5048102;28;20029;-42
2023/07/02 10:41:02;;;;;;;6.57;3.60;;;20.40;87.50;;;;;;5044393;28;20031;-42
2023/07/02 10:43:28;;;;;;;4.85;3.30;;;20.30;85.90;;;;;;5047782;28;20054;-42
2023/07/02 10:45:54;;;;;;;5.05;3.33;;;20.30;86.90;;;;;;5047204;28;20572;-42
2023/07/02 10:48:20;;;;;;;7.03;4.18;;;20.30;85.00;;;;;;5046953;28;20095;-42
2023/07/02 10:50:46;;;;;;;6.78;3.85;;;20.40;86.80;;;;;;5046727;28;20033;-42
2023/07/02 10:53:19;;;;;;;7.63;3.97;;;20.40;85.10;;;;;;5047379;28;20032;-42
2023/07/02 10:55:45;;;;;;;8.10;4.50;;;20.50;84.10;;;;;;5046520;28;20032;-42
2023/07/02 10:58:12;;;;;;;7.82;3.60;;;20.50;83.90;;;;;;5046697;28;20029;-41
2023/07/02 11:00:53;;;;;;;6.57;4.28;;;20.50;84.10;;;;;;5046741;28;20497;-42
2023/07/02 11:03:23;;;;;;;5.50;3.33;;;20.60;84.20;;;;;;5027094;28;20493;-41
2023/07/02 11:05:50;;;;;;;9.43;3.75;;;20.60;84.80;;;;;;5041951;28;20037;-41
2023/07/02 11:08:21;;;;;;;7.03;4.10;;;20.90;84.10;;;;;;5045954;28;20037;-42
2023/07/02 11:10:46;;;;;;;7.03;4.18;;;20.90;84.00;;;;;;5047073;28;20025;-42
2023/07/02 11:13:19;;;;;;;7.78;4.47;;;20.80;81.10;;;;;;5046700;28;20036;-41
2023/07/02 11:15:46;;;;;;;7.40;3.63;;;20.70;83.30;;;;;;5045572;28;20087;-42
2023/07/02 11:18:12;;;;;;;6.97;3.63;;;20.80;83.30;;;;;;5046349;28;20036;-41
2023/07/02 11:20:39;;;;;;;6.70;3.65;;;20.90;84.40;;;;;;5046720;28;20028;-41
2023/07/02 11:23:16;;;;;;;7.78;3.80;;;21.10;82.20;;;;;;5046250;28;20059;-42
2023/07/02 11:26:00;;;;;;;5.85;3.60;;;21.10;80.80;;;;;;5046607;28;20033;-41
2023/07/02 11:28:27;;;;;;;8.75;3.58;;;21.10;80.70;;;;;;5046750;28;20472;-41
2023/07/02 11:30:53;;;;;;;4.50;3.10;;;21.10;80.40;;;;;;5045938;28;20017;-41
2023/07/02 11:33:20;;;;;;;5.70;3.13;;;21.00;80.50;;;;;;5046426;28;20074;-42
2023/07/02 11:35:46;;;;;;;4.93;3.33;;;21.10;80.20;;;;;;5046343;28;20071;-41
2023/07/02 11:38:12;;;;;;;4.88;3.30;;;21.10;79.80;;;;;;5045497;28;20061;-42
2023/07/02 11:40:38;;;;;;;5.88;3.13;;;21.10;80.10;;;;;;5046099;28;20029;-42
2023/07/02 11:43:05;;;;;;;5.57;3.30;;;21.10;78.80;;;;;;5046204;28;20037;-42
2023/07/02 11:45:31;;;;;;;6.47;3.03;;;21.00;78.90;;;;;;5045553;28;20029;-42
2023/07/02 11:47:57;;;;;;;6.65;2.90;;;21.00;79.00;;;;;;5043255;28;20554;-42
2023/07/02 11:50:22;;;;;;;4.28;2.90;;;20.90;78.70;;;;;;5046032;28;20537;-42
2023/07/02 11:52:48;;;;;;;5.50;3.17;;;20.90;79.10;;;;;;5046346;28;20025;-42
2023/07/02 11:55:13;;;;;;;4.65;3.13;;;20.90;78.60;;;;;;5045953;28;20012;-42
2023/07/02 11:57:39;;;;;;;4.18;2.60;;;20.90;78.70;;;;;;5045740;28;20361;-41
2023/07/02 12:00:05;;;;;;;4.85;2.80;;;20.90;79.30;;;;;;5046394;28;20137;-42
2023/07/02 12:02:31;;;;;;;5.93;3.28;;;21.10;78.90;;;;;;5046329;28;20043;-42
2023/07/02 12:04:56;;;;;;;5.32;3.20;;;21.10;76.70;;;;;;5045513;28;20045;-41
2023/07/02 12:07:22;;;;;;;4.55;2.85;;;21.00;77.20;;;;;;5045767;28;20044;-41
2023/07/02 12:09:47;;;;;;;4.40;3.08;;;21.00;76.60;;;;;;5046019;28;20020;-41
2023/07/02 12:12:13;;;;;;;4.35;2.90;;;20.90;77.80;;;;;;5045141;28;20032;-41
2023/07/02 12:14:43;;;;;;;6.03;3.30;;;20.90;77.40;;;;;;5046315;28;20117;-42
2023/07/02 12:17:08;;;;;;;4.43;2.92;;;21.00;77.20;;;;;;5045828;28;20064;-41
2023/07/02 12:19:37;;;;;;;4.53;2.90;;;21.10;77.50;;;;;;5045744;28;20464;-42
2023/07/02 12:22:06;;;;;;;5.88;3.05;;;21.10;77.40;;;;;;5045471;28;20061;-42
2023/07/02 12:24:31;;;;;;;4.03;2.95;;;21.00;76.40;;;;;;5045441;28;20540;-43
2023/07/02 12:26:57;;;;;;;5.63;3.60;;;21.00;76.70;;;;;;5045355;28;20051;-42
2023/07/02 12:29:22;;;;;;;6.45;3.90;;;21.00;77.40;;;;;;5045590;28;20043;-42
2023/07/02 12:31:48;;;;;;;7.03;3.40;;;21.10;76.30;;;;;;5045571;28;20067;-42
2023/07/02 12:34:13;;;;;;;5.47;3.63;;;21.20;76.50;;;;;;5043860;28;20031;-41
2023/07/02 12:36:39;;;;;;;6.18;3.72;;;21.30;75.60;;;;;;5045676;28;20040;-42
2023/07/02 12:39:04;;;;;;;6.38;3.47;;;21.30;75.20;;;;;;5044998;28;20166;-46
2023/07/02 12:41:30;;;;;;;5.25;3.17;;;21.30;74.40;;;;;;5045287;28;20831;-42
2023/07/02 12:43:56;;;;;;;4.47;3.03;;;21.30;75.10;;;;;;5045682;28;20036;-42